Time;durP1;ratioP1;P1;durP2;ratioP2;P2;SDS_P1;SDS_P2;PMS_P1;PMS_P2;Temp;Humidity;BMP_temperature;BMP_pressure;BME280_temperature;BME280_humidity;BME280_pressure;Samples;Min_cycle;Max_cycle;Signal;HPM_P1;HPM_P2
2023/06/09 00:00:19;;;;;;;6.77;5.87;;;;;;;16.84;100.00;99874.91;4983138;28;20564;-76
2023/06/09 00:02:47;;;;;;;6.10;5.60;;;;;;;16.82;100.00;99881.97;4997840;28;20582;-74
2023/06/09 00:05:12;;;;;;;6.10;5.60;;;;;;;16.79;100.00;99887.31;4997492;28;20910;-75
2023/06/09 00:07:38;;;;;;;5.73;5.33;;;;;;;16.70;100.00;99892.94;4998844;28;20232;-76
2023/06/09 00:10:04;;;;;;;6.20;5.77;;;;;;;16.63;100.00;99886.28;4999212;28;20924;-75
2023/06/09 00:12:30;;;;;;;6.20;5.70;;;;;;;16.54;100.00;99896.16;5001472;28;20192;-75
2023/06/09 00:14:55;;;;;;;6.33;5.73;;;;;;;16.42;100.00;99879.22;4977270;28;20240;-75
2023/06/09 00:17:24;;;;;;;6.60;6.00;;;;;;;16.32;100.00;99887.50;5000115;28;20305;-75
2023/06/09 00:19:52;;;;;;;6.83;6.23;;;;;;;16.27;100.00;99888.53;4997011;28;20195;-76
2023/06/09 00:22:19;;;;;;;6.03;5.63;;;;;;;16.29;100.00;99886.69;4991373;28;20277;-75
2023/06/09 00:24:45;;;;;;;5.97;5.30;;;;;;;16.32;100.00;99888.34;4997458;28;20568;-75
2023/06/09 00:27:11;;;;;;;6.40;5.87;;;;;;;16.34;100.00;99891.75;5000600;28;20216;-74
2023/06/09 00:29:36;;;;;;;6.90;6.30;;;;;;;16.33;100.00;99887.41;5000130;28;20196;-74
2023/06/09 00:32:02;;;;;;;6.47;5.97;;;;;;;16.35;100.00;99875.16;4999282;28;20582;-75
2023/06/09 00:34:28;;;;;;;6.20;5.70;;;;;;;16.29;100.00;99873.66;4998520;28;20188;-75
2023/06/09 00:36:53;;;;;;;6.03;5.53;;;;;;;16.30;100.00;99871.88;4993508;28;20198;-76
2023/06/09 00:39:19;;;;;;;6.33;5.73;;;;;;;16.21;100.00;99867.84;5005983;28;20282;-75
2023/06/09 00:41:44;;;;;;;8.20;6.03;;;;;;;16.17;100.00;99874.13;5003169;28;20208;-76
2023/06/09 00:44:09;;;;;;;6.60;6.10;;;;;;;16.15;100.00;99873.34;5005570;28;20191;-75
2023/06/09 00:46:35;;;;;;;6.67;6.00;;;;;;;16.12;100.00;99871.69;4987319;28;20602;-74
2023/06/09 00:49:01;;;;;;;5.83;5.40;;;;;;;16.12;100.00;99874.28;4996323;28;20232;-75
2023/06/09 00:51:26;;;;;;;6.03;5.53;;;;;;;16.07;100.00;99873.63;5001080;28;20301;-76
2023/06/09 00:53:52;;;;;;;6.20;5.60;;;;;;;16.05;100.00;99879.78;4984397;28;20192;-74
2023/06/09 00:56:18;;;;;;;7.20;6.50;;;;;;;16.01;100.00;99871.25;5004430;28;20253;-74
2023/06/09 00:58:44;;;;;;;6.60;6.03;;;;;;;15.95;100.00;99861.91;5001714;28;20945;-75
2023/06/09 01:01:09;;;;;;;6.03;5.53;;;;;;;15.99;100.00;99867.84;5001151;28;20208;-75
2023/06/09 01:03:34;;;;;;;6.50;6.00;;;;;;;16.03;100.00;99866.00;4995578;28;20314;-76
2023/06/09 01:06:26;;;;;;;6.70;6.10;;;;;;;15.98;100.00;99866.13;4997236;28;20188;-74
2023/06/09 01:09:01;;;;;;;6.30;5.73;;;;;;;15.93;100.00;99871.53;4996808;28;20259;-74
2023/06/09 01:11:33;;;;;;;6.93;6.43;;;;;;;15.86;100.00;99862.25;5001866;28;20246;-75
2023/06/09 01:14:13;;;;;;;6.73;6.13;;;;;;;15.92;100.00;99858.56;5001396;28;20210;-75
2023/06/09 01:16:41;;;;;;;6.40;5.80;;;;;;;15.88;100.00;99870.88;4999267;28;20192;-75
2023/06/09 01:19:11;;;;;;;6.57;5.97;;;;;;;15.83;100.00;99868.38;4998496;28;20242;-75
2023/06/09 01:21:45;;;;;;;7.43;6.83;;;;;;;15.81;100.00;99872.81;4982194;28;20195;-75
2023/06/09 01:24:30;;;;;;;7.30;6.43;;;;;;;15.77;100.00;99855.59;5003950;28;20199;-75
2023/06/09 01:26:59;;;;;;;6.77;6.27;;;;;;;15.80;100.00;99862.44;5002341;28;20230;-74
2023/06/09 01:29:26;;;;;;;7.23;6.63;;;;;;;15.76;100.00;99860.84;4981748;28;20188;-75
2023/06/09 01:31:52;;;;;;;7.23;6.53;;;;;;;15.65;100.00;99853.44;4999056;28;20193;-75
2023/06/09 01:34:18;;;;;;;6.70;6.10;;;;;;;15.61;100.00;99850.06;4987736;28;20327;-75
2023/06/09 01:36:44;;;;;;;6.73;6.20;;;;;;;15.57;100.00;99850.25;4981400;28;20213;-74
2023/06/09 01:39:11;;;;;;;6.77;6.20;;;;;;;15.54;100.00;99852.06;4997950;28;20274;-75
2023/06/09 01:41:36;;;;;;;6.57;5.97;;;;;;;15.51;100.00;99849.56;5002054;28;20266;-75
2023/06/09 01:44:02;;;;;;;6.73;6.13;;;;;;;15.48;100.00;99844.47;4985329;28;20611;-74
2023/06/09 01:46:27;;;;;;;7.20;6.53;;;;;;;15.45;100.00;99846.31;4985840;28;20198;-75
2023/06/09 01:49:00;;;;;;;6.70;6.20;;;;;;;15.44;100.00;99852.44;4997344;28;20221;-75
2023/06/09 01:51:46;;;;;;;6.57;6.07;;;;;;;15.43;100.00;99848.16;4997200;28;20197;-75
2023/06/09 01:54:20;;;;;;;7.00;6.37;;;;;;;15.42;100.00;99841.25;5001539;28;20225;-75
2023/06/09 01:56:51;;;;;;;7.17;6.67;;;;;;;15.44;100.00;99837.66;5002863;28;20204;-76
2023/06/09 01:59:23;;;;;;;7.30;6.60;;;;;;;15.41;100.00;99840.38;4982526;28;20219;-74
2023/06/09 02:01:51;;;;;;;7.00;6.50;;;;;;;15.38;100.00;99838.75;4999647;28;20194;-74
2023/06/09 02:04:20;;;;;;;7.87;6.40;;;;;;;15.31;100.00;99841.63;4994070;28;20209;-75
2023/06/09 02:06:47;;;;;;;7.13;6.47;;;;;;;15.31;100.00;99847.69;4985173;28;20190;-76
2023/06/09 02:09:13;;;;;;;7.20;6.50;;;;;;;15.24;100.00;99841.81;4999768;28;20678;-75
2023/06/09 02:11:38;;;;;;;7.23;6.63;;;;;;;15.29;100.00;99836.44;5001050;28;20193;-75
2023/06/09 02:14:04;;;;;;;7.70;7.10;;;;;;;15.27;100.00;99834.81;4980829;28;20193;-74
2023/06/09 02:16:29;;;;;;;6.63;6.13;;;;;;;15.23;100.00;99834.06;4995370;28;20632;-75
2023/06/09 02:18:56;;;;;;;7.53;6.87;;;;;;;15.18;100.00;99836.00;5001212;28;20214;-75
2023/06/09 02:21:21;;;;;;;7.37;6.13;;;;;;;15.10;100.00;99836.25;4980851;28;20205;-75
2023/06/09 02:23:47;;;;;;;7.37;6.77;;;;;;;15.12;100.00;99839.66;5003123;28;20200;-75
2023/06/09 02:26:12;;;;;;;6.57;6.07;;;;;;;15.08;100.00;99830.25;5000813;28;22362;-75
2023/06/09 02:28:38;;;;;;;7.23;6.63;;;;;;;15.06;100.00;99837.25;5000705;28;20370;-76
2023/06/09 02:31:04;;;;;;;7.37;6.67;;;;;;;15.02;100.00;99836.53;4993987;28;20197;-75
2023/06/09 02:33:30;;;;;;;7.13;6.63;;;;;;;14.98;100.00;99834.09;5004630;28;20732;-75
2023/06/09 02:35:55;;;;;;;7.63;7.03;;;;;;;15.01;100.00;99839.19;5000688;28;20202;-77
2023/06/09 02:38:21;;;;;;;8.00;7.20;;;;;;;14.96;100.00;99844.56;4999241;28;20219;-75
2023/06/09 02:40:47;;;;;;;7.23;6.57;;;;;;;14.94;100.00;99847.22;4995730;28;20549;-75
2023/06/09 02:43:13;;;;;;;7.17;6.57;;;;;;;14.97;100.00;99843.66;4998372;28;20310;-75
2023/06/09 02:45:38;;;;;;;7.63;7.03;;;;;;;14.93;100.00;99840.28;4995096;28;20200;-76
2023/06/09 02:48:04;;;;;;;6.90;6.40;;;;;;;14.89;100.00;99840.44;5003496;28;20235;-74
2023/06/09 02:50:30;;;;;;;7.90;7.20;;;;;;;14.88;100.00;99843.97;5002382;28;20288;-75
2023/06/09 02:52:56;;;;;;;7.40;6.80;;;;;;;14.86;100.00;99841.41;5001727;28;20195;-75
2023/06/09 02:55:21;;;;;;;8.30;7.60;;;;;;;14.85;100.00;99841.44;4980638;28;20201;-75
2023/06/09 02:57:47;;;;;;;7.10;6.50;;;;;;;14.79;100.00;99834.69;5000593;28;20706;-75
2023/06/09 03:00:12;;;;;;;8.00;7.30;;;;;;;14.72;100.00;99839.28;4997921;28;20201;-75
2023/06/09 03:02:40;;;;;;;7.83;7.13;;;;;;;14.76;100.00;99834.78;4984741;28;20183;-75
2023/06/09 03:05:06;;;;;;;7.20;6.70;;;;;;;14.72;100.00;99831.44;5000706;28;20197;-74
2023/06/09 03:07:31;;;;;;;7.90;7.20;;;;;;;14.62;100.00;99837.84;4997379;28;20632;-74
2023/06/09 03:09:59;;;;;;;8.57;7.77;;;;;;;14.52;100.00;99834.69;4999683;28;20194;-75
2023/06/09 03:12:25;;;;;;;8.70;7.87;;;;;;;14.56;100.00;99832.81;4999093;28;20220;-75
2023/06/09 03:14:50;;;;;;;8.40;7.70;;;;;;;14.56;100.00;99838.03;4997468;28;20193;-75
2023/06/09 03:17:17;;;;;;;7.93;7.33;;;;;;;14.52;100.00;99841.66;4980878;28;21048;-74
2023/06/09 03:19:42;;;;;;;8.73;8.03;;;;;;;14.50;100.00;99836.50;4984913;28;20202;-75
2023/06/09 03:22:08;;;;;;;8.27;7.57;;;;;;;14.53;100.00;99843.34;4978441;28;20837;-74
2023/06/09 03:24:33;;;;;;;8.70;7.90;;;;;;;14.47;100.00;99841.78;5004143;28;20187;-75
2023/06/09 03:26:58;;;;;;;8.30;7.60;;;;;;;14.51;100.00;99839.97;4995097;28;20274;-74
2023/06/09 03:29:24;;;;;;;8.30;7.60;;;;;;;14.44;100.00;99839.31;4994824;28;20314;-75
2023/06/09 03:31:49;;;;;;;8.33;7.63;;;;;;;14.43;100.00;99837.59;4983128;28;20211;-75
2023/06/09 03:34:14;;;;;;;7.47;6.90;;;;;;;14.41;100.00;99835.03;5001656;28;20189;-75
2023/06/09 03:36:40;;;;;;;8.10;7.40;;;;;;;14.50;100.00;99839.09;4982257;28;20237;-75
2023/06/09 03:39:05;;;;;;;8.00;7.23;;;;;;;14.46;100.00;99830.53;4999635;28;20293;-74
2023/06/09 03:41:30;;;;;;;8.53;7.77;;;;;;;14.55;100.00;99831.13;4982292;28;20299;-76
2023/06/09 03:43:56;;;;;;;8.17;7.47;;;;;;;14.58;100.00;99826.69;4979101;28;20275;-76
2023/06/09 03:46:21;;;;;;;8.40;7.53;;;;;;;14.60;100.00;99827.47;4995619;28;20562;-74
2023/06/09 03:48:46;;;;;;;8.27;7.47;;;;;;;14.63;100.00;99829.13;5005955;28;20578;-76
2023/06/09 03:51:12;;;;;;;7.77;7.17;;;;;;;14.70;100.00;99828.03;5003311;28;20266;-75
2023/06/09 03:53:37;;;;;;;8.10;7.40;;;;;;;14.70;100.00;99837.63;4992385;28;20620;-75
2023/06/09 03:56:03;;;;;;;7.90;7.20;;;;;;;14.81;100.00;99835.50;5001066;28;20620;-74
2023/06/09 03:58:29;;;;;;;7.60;7.03;;;;;;;14.92;100.00;99829.94;4999898;28;20303;-75
2023/06/09 04:00:54;;;;;;;8.50;7.60;;;;;;;14.96;100.00;99841.09;4998898;28;20224;-75
2023/06/09 04:03:22;;;;;;;8.10;7.50;;;;;;;15.00;100.00;99840.09;5002688;28;20763;-76
2023/06/09 04:05:48;;;;;;;7.77;7.17;;;;;;;15.03;100.00;99842.59;5000228;28;20951;-75
2023/06/09 04:08:14;;;;;;;8.10;7.30;;;;;;;15.00;100.00;99843.53;4998812;28;20236;-75
2023/06/09 04:10:43;;;;;;;7.77;7.17;;;;;;;14.96;100.00;99848.91;4999806;28;20613;-75
2023/06/09 04:13:11;;;;;;;8.73;7.80;;;;;;;14.99;100.00;99841.84;5000439;28;20185;-75
2023/06/09 04:15:36;;;;;;;8.40;7.60;;;;;;;15.04;100.00;99849.53;4992216;28;20200;-75
2023/06/09 04:18:03;;;;;;;7.40;6.70;;;;;;;15.02;100.00;99853.94;4980754;28;20220;-75
2023/06/09 04:20:29;;;;;;;7.50;6.90;;;;;;;15.18;100.00;99849.88;5001926;28;20201;-75
2023/06/09 04:22:55;;;;;;;7.30;6.63;;;;;;;15.39;100.00;99843.06;4981600;28;20627;-75
2023/06/09 04:25:27;;;;;;;7.80;7.20;;;;;;;15.42;100.00;99846.47;4996588;28;20206;-74
2023/06/09 04:27:56;;;;;;;6.87;6.37;;;;;;;15.51;100.00;99846.13;4991154;28;20746;-75
2023/06/09 04:30:25;;;;;;;7.70;7.10;;;;;;;15.59;100.00;99848.44;4998727;28;20199;-74
2023/06/09 04:32:55;;;;;;;7.43;6.73;;;;;;;15.65;100.00;99850.84;4996216;28;20210;-74
2023/06/09 04:35:21;;;;;;;8.10;7.40;;;;;;;15.73;100.00;99850.56;4997866;28;20200;-73
2023/06/09 04:37:48;;;;;;;7.27;6.57;;;;;;;16.01;100.00;99847.75;4982003;28;20220;-75
2023/06/09 04:40:21;;;;;;;7.40;6.70;;;;;;;16.47;100.00;99847.72;4994043;28;20200;-75
2023/06/09 04:42:51;;;;;;;7.43;6.80;;;;;;;17.15;100.00;99841.44;4995225;28;20396;-75
2023/06/09 04:45:27;;;;;;;7.60;6.90;;;;;;;17.80;98.36;99843.78;4999737;28;20198;-75
2023/06/09 04:47:57;;;;;;;7.30;6.67;;;;;;;18.24;95.31;99851.34;4998586;28;20233;-76
2023/06/09 04:50:23;;;;;;;7.37;6.77;;;;;;;18.40;93.14;99854.06;4977551;28;20734;-74
2023/06/09 04:52:49;;;;;;;6.80;6.20;;;;;;;18.70;92.48;99865.72;4997714;28;20195;-75
2023/06/09 04:55:14;;;;;;;7.17;6.47;;;;;;;18.71;90.93;99855.19;4997647;28;20196;-75
2023/06/09 04:57:40;;;;;;;8.30;6.23;;;;;;;18.62;91.07;99860.03;4985858;28;20231;-75
2023/06/09 05:00:17;;;;;;;8.43;6.00;;;;;;;18.96;90.88;99853.13;4994246;28;20195;-75
2023/06/09 05:02:44;;;;;;;6.30;5.70;;;;;;;19.27;89.85;99856.81;4978656;28;20246;-76
2023/06/09 05:05:10;;;;;;;6.43;5.77;;;;;;;19.22;89.17;99856.19;4997377;28;20189;-76
2023/06/09 05:07:36;;;;;;;6.03;5.40;;;;;;;19.69;86.83;99858.06;4996909;28;20231;-75
2023/06/09 05:10:02;;;;;;;7.73;5.87;;;;;;;19.81;87.55;99853.94;5001703;28;20673;-75
2023/06/09 05:12:27;;;;;;;6.87;5.70;;;;;;;19.57;87.26;99862.19;4999289;28;20223;-75
2023/06/09 05:14:52;;;;;;;6.37;5.87;;;;;;;20.30;85.73;99860.03;4996092;28;21065;-77
2023/06/09 05:17:17;;;;;;;5.63;5.13;;;;;;;20.94;83.24;99870.44;4997634;28;20204;-76
2023/06/09 05:19:43;;;;;;;5.83;5.33;;;;;;;21.68;80.95;99863.38;4979246;28;20224;-76
2023/06/09 05:22:08;;;;;;;5.83;5.33;;;;;;;22.23;79.18;99868.72;5000129;28;20193;-75
2023/06/09 05:24:33;;;;;;;6.50;5.90;;;;;;;21.99;78.33;99869.34;4999542;28;20257;-75
2023/06/09 05:26:59;;;;;;;6.33;4.53;;;;;;;22.88;76.88;99869.78;5000343;28;20192;-76
2023/06/09 05:29:25;;;;;;;6.13;5.63;;;;;;;22.67;76.18;99875.56;4983647;28;20192;-76
2023/06/09 05:31:50;;;;;;;6.00;5.50;;;;;;;22.05;77.43;99879.50;4987239;28;20196;-76
2023/06/09 05:34:15;;;;;;;7.33;6.30;;;;;;;19.90;84.33;99884.97;5003966;28;20239;-75
2023/06/09 05:36:41;;;;;;;6.77;6.10;;;;;;;19.88;85.14;99884.22;4999699;28;20258;-76
2023/06/09 05:39:08;;;;;;;6.13;5.60;;;;;;;20.41;84.52;99876.91;5001704;28;20239;-76
2023/06/09 05:41:33;;;;;;;6.80;6.20;;;;;;;21.09;81.75;99874.78;5000725;28;20730;-75
2023/06/09 05:43:59;;;;;;;6.97;6.27;;;;;;;20.83;82.29;99882.44;4998695;28;20184;-75
2023/06/09 05:46:25;;;;;;;6.33;5.73;;;;;;;21.20;81.05;99879.41;5000595;28;20188;-75
2023/06/09 05:48:51;;;;;;;7.20;6.60;;;;;;;20.34;83.15;99888.72;5000247;28;20231;-76
2023/06/09 05:51:17;;;;;;;6.63;5.70;;;;;;;21.67;81.12;99885.38;4982971;28;20239;-75
2023/06/09 05:53:42;;;;;;;6.60;5.80;;;;;;;21.45;79.13;99886.69;4999167;28;20227;-76
2023/06/09 05:56:09;;;;;;;7.07;6.37;;;;;;;20.04;85.15;99893.88;5005667;28;20254;-75
2023/06/09 05:58:34;;;;;;;6.03;5.47;;;;;;;21.55;81.04;99878.22;5005293;28;20223;-75
2023/06/09 06:01:00;;;;;;;6.50;6.00;;;;;;;21.11;81.46;99896.59;5005652;28;20899;-76
2023/06/09 06:03:27;;;;;;;7.00;5.53;;;;;;;21.45;80.20;99883.19;4980980;28;20194;-76
2023/06/09 06:05:52;;;;;;;6.40;5.80;;;;;;;22.13;77.90;99900.09;5004703;28;20259;-75
2023/06/09 06:08:17;;;;;;;9.03;6.00;;;;;;;22.48;77.23;99886.44;4997590;28;20294;-74
2023/06/09 06:10:43;;;;;;;7.00;6.10;;;;;;;22.80;76.42;99890.56;5000267;28;20188;-75
2023/06/09 06:13:08;;;;;;;7.13;6.53;;;;;;;22.20;76.52;99904.00;4997484;28;20191;-74
2023/06/09 06:15:34;;;;;;;5.97;5.40;;;;;;;22.86;75.98;99891.94;5006647;28;20189;-75
2023/06/09 06:17:59;;;;;;;6.97;6.37;;;;;;;22.00;79.20;99899.19;5003917;28;20212;-75
2023/06/09 06:20:24;;;;;;;6.80;6.20;;;;;;;20.45;82.86;99903.84;5002693;28;20217;-74
2023/06/09 06:22:50;;;;;;;6.13;5.67;;;;;;;21.12;83.14;99894.81;5001108;28;20184;-75
2023/06/09 06:25:17;;;;;;;6.43;5.93;;;;;;;21.54;81.67;99893.19;4988758;28;20732;-74
2023/06/09 06:27:43;;;;;;;6.57;5.97;;;;;;;20.86;84.30;99894.56;4987703;28;20220;-75
2023/06/09 06:30:08;;;;;;;6.73;6.10;;;;;;;21.60;81.71;99881.44;5000007;28;20579;-75
2023/06/09 06:32:35;;;;;;;9.00;6.70;;;;;;;22.11;80.56;99883.53;5001412;28;20234;-75
2023/06/09 06:35:01;;;;;;;7.80;6.30;;;;;;;21.51;81.48;99887.22;4998831;28;20188;-75
2023/06/09 06:37:28;;;;;;;6.80;6.20;;;;;;;20.91;83.14;99887.25;4997129;28;20223;-75
2023/06/09 06:39:54;;;;;;;7.73;6.73;;;;;;;22.01;80.26;99878.00;4985794;28;20291;-74
2023/06/09 06:42:20;;;;;;;6.23;5.60;;;;;;;22.90;78.93;99872.31;5005104;28;20188;-75
2023/06/09 06:44:45;;;;;;;6.17;5.53;;;;;;;23.36;77.49;99879.78;4999442;28;20195;-75
2023/06/09 06:47:10;;;;;;;6.73;6.13;;;;;;;22.98;77.34;99876.13;5002986;28;20251;-76
2023/06/09 06:49:36;;;;;;;6.40;5.80;;;;;;;23.33;77.34;99882.63;4995459;28;20276;-75
2023/06/09 06:52:01;;;;;;;7.67;6.90;;;;;;;22.10;79.87;99873.06;4980834;28;20621;-75
2023/06/09 06:54:26;;;;;;;6.47;5.97;;;;;;;22.07;81.08;99888.16;4983464;28;20613;-74
2023/06/09 06:56:52;;;;;;;6.90;6.20;;;;;;;22.06;80.88;99873.28;5001542;28;20267;-75
2023/06/09 06:59:17;;;;;;;5.63;5.23;;;;;;;22.89;78.99;99881.19;4997714;28;20410;-75
2023/06/09 07:01:43;;;;;;;6.77;5.83;;;;;;;23.08;78.47;99878.97;4997698;28;20231;-75
2023/06/09 07:04:08;;;;;;;6.23;5.73;;;;;;;23.49;78.10;99881.56;4982193;28;20223;-74
2023/06/09 07:06:33;;;;;;;5.73;5.33;;;;;;;23.63;77.16;99884.06;5004187;28;20199;-75
2023/06/09 07:08:59;;;;;;;7.43;5.40;;;;;;;23.48;77.92;99885.16;4998796;28;20350;-75
2023/06/09 07:11:24;;;;;;;7.03;6.28;;;;;;;23.71;77.22;99884.38;4983547;28;20188;-75
2023/06/09 07:13:51;;;;;;;6.70;6.00;;;;;;;23.19;78.41;99896.72;4985078;28;20307;-76
2023/06/09 07:16:17;;;;;;;5.80;5.30;;;;;;;23.42;78.34;99897.81;4993349;28;20188;-75
2023/06/09 07:18:43;;;;;;;6.22;5.63;;;;;;;22.84;78.97;99887.59;4984437;28;20596;-75
2023/06/09 07:21:08;;;;;;;5.30;4.80;;;;;;;23.51;78.28;99887.56;4980091;28;20273;-75
2023/06/09 07:23:34;;;;;;;5.78;5.22;;;;;;;24.38;76.05;99886.75;4976916;28;20188;-75
2023/06/09 07:25:59;;;;;;;5.75;5.25;;;;;;;24.23;76.23;99889.56;4972753;28;20188;-76
2023/06/09 07:28:24;;;;;;;5.95;5.43;;;;;;;24.60;75.05;99888.63;4998834;28;20212;-75
2023/06/09 07:30:50;;;;;;;5.80;5.20;;;;;;;24.62;75.18;99892.84;5001626;28;20195;-75
2023/06/09 07:33:17;;;;;;;6.85;5.65;;;;;;;24.15;77.06;99881.31;4999330;28;20594;-75
2023/06/09 07:35:43;;;;;;;6.05;5.47;;;;;;;24.81;75.64;99886.22;5005110;28;20184;-75
2023/06/09 07:38:08;;;;;;;6.03;5.43;;;;;;;24.50;76.36;99878.72;5003736;28;20216;-75
2023/06/09 07:40:33;;;;;;;9.98;5.65;;;;;;;24.72;76.07;99874.50;5003893;28;20192;-75
2023/06/09 07:42:59;;;;;;;6.82;6.13;;;;;;;24.96;75.03;99877.13;4996003;28;20180;-75
2023/06/09 07:45:24;;;;;;;6.45;5.85;;;;;;;24.46;75.78;99879.06;4986234;28;20802;-75
2023/06/09 07:47:50;;;;;;;7.22;5.50;;;;;;;24.46;75.57;99885.22;4999938;28;20224;-75
2023/06/09 07:50:17;;;;;;;6.88;5.47;;;;;;;24.00;76.82;99883.28;4997068;28;20188;-75
2023/06/09 07:52:43;;;;;;;6.22;5.63;;;;;;;23.77;76.78;99882.25;5004559;28;20224;-75
2023/06/09 07:55:08;;;;;;;6.17;5.57;;;;;;;23.51;78.10;99880.47;4999561;28;20288;-75
2023/06/09 07:57:33;;;;;;;6.67;5.03;;;;;;;24.43;76.30;99882.78;4992596;28;20261;-75
2023/06/09 07:59:59;;;;;;;5.60;5.20;;;;;;;24.02;75.98;99884.03;5000352;28;20200;-75
2023/06/09 08:02:24;;;;;;;7.33;5.30;;;;;;;24.04;76.51;99871.53;5003501;28;20184;-76
2023/06/09 08:04:50;;;;;;;5.67;5.20;;;;;;;24.09;76.40;99876.50;4996799;28;20189;-75
2023/06/09 08:07:15;;;;;;;5.03;4.63;;;;;;;24.41;75.39;99870.66;4981561;28;20711;-75
2023/06/09 08:09:40;;;;;;;5.57;5.07;;;;;;;24.80;74.04;99873.94;4997294;28;20176;-76
2023/06/09 08:12:07;;;;;;;5.30;4.90;;;;;;;24.18;74.62;99871.38;4995364;28;20259;-74
2023/06/09 08:14:33;;;;;;;7.63;4.93;;;;;;;24.13;75.41;99876.16;4983366;28;20279;-75
2023/06/09 08:16:58;;;;;;;7.23;5.37;;;;;;;24.12;76.26;99868.34;4998520;28;21229;-75
2023/06/09 08:19:25;;;;;;;4.70;4.33;;;;;;;24.98;70.38;99871.69;4992779;28;20998;-75
2023/06/09 08:21:50;;;;;;;4.20;3.90;;;;;;;25.47;68.71;99871.53;4999805;28;20271;-74
2023/06/09 08:24:16;;;;;;;5.83;5.27;;;;;;;24.94;73.01;99873.75;5002773;28;20203;-75
2023/06/09 08:26:41;;;;;;;6.20;5.50;;;;;;;24.43;74.83;99866.09;4998790;28;21853;-74
2023/06/09 08:29:07;;;;;;;4.47;4.07;;;;;;;24.55;70.98;99859.88;4996453;28;20735;-76
2023/06/09 08:31:33;;;;;;;3.70;3.40;;;;;;;24.96;67.37;99857.72;5002588;28;20279;-75
2023/06/09 08:33:59;;;;;;;4.47;3.70;;;;;;;25.00;63.84;99850.41;4975714;28;20280;-75
2023/06/09 08:36:25;;;;;;;3.70;3.40;;;;;;;25.08;64.18;99859.47;4977675;28;20196;-76
2023/06/09 08:38:50;;;;;;;3.93;3.63;;;;;;;25.15;64.48;99849.22;4998646;28;20212;-75
2023/06/09 08:41:16;;;;;;;5.93;4.07;;;;;;;24.96;66.37;99855.06;4979932;28;20577;-75
2023/06/09 08:43:42;;;;;;;4.10;3.80;;;;;;;25.33;68.35;99848.78;4984073;28;20192;-75
2023/06/09 08:46:11;;;;;;;4.33;4.03;;;;;;;25.19;65.97;99841.88;5003720;28;20633;-75
2023/06/09 08:48:41;;;;;;;4.07;3.77;;;;;;;25.73;62.89;99850.94;4998318;28;20759;-75
2023/06/09 08:51:08;;;;;;;4.10;3.70;;;;;;;25.72;62.93;99839.47;4995174;28;20676;-75
2023/06/09 08:53:34;;;;;;;3.27;3.07;;;;;;;26.27;62.59;99846.63;4983909;28;20579;-75
2023/06/09 08:56:00;;;;;;;3.50;3.30;;;;;;;26.44;60.75;99836.44;5002778;28;20210;-75
2023/06/09 08:58:26;;;;;;;4.23;3.07;;;;;;;26.56;61.63;99847.81;5001882;28;20224;-75
2023/06/09 09:00:52;;;;;;;3.60;3.30;;;;;;;26.48;60.69;99845.78;4986125;28;20192;-75
2023/06/09 09:03:18;;;;;;;3.70;3.40;;;;;;;26.45;60.21;99846.06;4999454;28;20291;-75
2023/06/09 09:05:44;;;;;;;3.53;3.33;;;;;;;26.13;60.62;99837.13;4984050;28;20275;-75
2023/06/09 09:08:11;;;;;;;3.37;3.17;;;;;;;26.62;61.42;99842.00;4990108;28;20683;-75
2023/06/09 09:10:38;;;;;;;34.67;7.20;;;;;;;26.67;61.12;99839.81;4986846;28;20749;-75
2023/06/09 09:13:08;;;;;;;9.83;4.23;;;;;;;26.92;61.51;99848.38;4987603;28;20223;-74
2023/06/09 09:15:33;;;;;;;6.93;4.10;;;;;;;25.98;63.43;99836.56;4998154;28;20192;-74
2023/06/09 09:17:58;;;;;;;4.37;4.07;;;;;;;25.64;64.21;99841.09;5005703;28;20382;-75
2023/06/09 09:20:32;;;;;;;4.83;3.30;;;;;;;25.38;64.42;99839.50;4985721;28;20188;-74
2023/06/09 09:22:57;;;;;;;6.27;4.07;;;;;;;25.50;63.83;99832.41;5003762;28;20800;-75
2023/06/09 09:25:25;;;;;;;5.13;4.33;;;;;;;25.51;64.99;99841.22;5003055;28;20223;-76
2023/06/09 09:28:17;;;;;;;4.40;4.00;;;;;;;25.79;64.25;99837.19;4986152;28;20693;-75
2023/06/09 09:30:45;;;;;;;5.77;4.43;;;;;;;25.51;66.94;99834.09;4994600;28;20288;-75
2023/06/09 09:33:45;;;;;;;4.17;3.83;;;;;;;25.26;67.71;99841.28;5002011;28;20223;-75
2023/06/09 09:36:10;;;;;;;5.10;4.60;;;;;;;25.36;66.51;99830.81;4990490;28;20238;-75
2023/06/09 09:38:35;;;;;;;4.67;4.27;;;;;;;25.56;66.81;99828.44;5005078;28;20220;-75
2023/06/09 09:41:01;;;;;;;5.60;5.03;;;;;;;25.40;68.88;99834.94;5004619;28;20192;-73
2023/06/09 09:43:28;;;;;;;6.43;4.70;;;;;;;25.32;70.39;99836.50;5003032;28;20193;-74
2023/06/09 09:45:56;;;;;;;5.63;4.80;;;;;;;25.22;69.03;99829.25;5006527;28;20188;-75
2023/06/09 09:48:24;;;;;;;8.33;5.00;;;;;;;25.38;69.18;99820.97;5003429;28;20196;-75
2023/06/09 09:50:52;;;;;;;4.10;3.70;;;;;;;25.60;65.21;99819.28;4980078;28;20660;-75
2023/06/09 09:53:21;;;;;;;4.20;3.80;;;;;;;25.63;63.92;99832.28;5002681;28;20424;-74
2023/06/09 09:55:46;;;;;;;8.23;4.47;;;;;;;25.51;64.13;99812.06;4989599;28;20214;-75
2023/06/09 09:58:14;;;;;;;4.87;4.33;;;;;;;25.50;67.04;99819.16;5004255;28;20220;-74
2023/06/09 10:00:44;;;;;;;6.10;4.30;;;;;;;25.49;66.84;99812.16;4980392;28;20192;-75
2023/06/09 10:03:14;;;;;;;6.37;4.50;;;;;;;25.64;66.92;99806.63;4998151;28;20231;-75
2023/06/09 10:05:43;;;;;;;4.87;4.47;;;;;;;25.72;67.71;99814.81;5006290;28;20853;-75
2023/06/09 10:08:12;;;;;;;4.97;4.43;;;;;;;25.64;66.68;99806.63;5000306;28;20940;-75
2023/06/09 10:10:38;;;;;;;4.50;4.10;;;;;;;25.72;66.79;99812.16;4998369;28;20196;-75
2023/06/09 10:13:04;;;;;;;5.70;4.27;;;;;;;25.88;67.57;99811.75;4997214;28;20193;-75
2023/06/09 10:15:31;;;;;;;6.57;4.63;;;;;;;25.77;67.06;99802.03;5001144;28;20195;-76
2023/06/09 10:17:57;;;;;;;4.60;4.20;;;;;;;25.88;66.96;99803.78;5004690;28;20218;-75
2023/06/09 10:20:23;;;;;;;4.70;4.30;;;;;;;25.71;67.42;99813.94;5000658;28;20192;-75
2023/06/09 10:22:49;;;;;;;4.80;4.40;;;;;;;25.50;68.45;99808.56;5004404;28;20192;-75
2023/06/09 10:25:15;;;;;;;4.73;4.33;;;;;;;25.63;68.14;99802.31;4997260;28;20678;-75
2023/06/09 10:27:40;;;;;;;4.43;4.03;;;;;;;25.65;67.68;99810.94;5002512;28;20219;-75
2023/06/09 10:30:08;;;;;;;4.50;4.10;;;;;;;25.48;67.34;99809.66;5002120;28;20279;-75
2023/06/09 10:32:38;;;;;;;4.40;3.97;;;;;;;25.76;68.16;99802.13;4992670;28;20181;-74
2023/06/09 10:35:06;;;;;;;5.13;4.33;;;;;;;25.74;67.82;99801.41;4998846;28;20250;-74
2023/06/09 10:37:33;;;;;;;5.77;4.53;;;;;;;25.78;67.69;99793.13;5004472;28;20877;-75
2023/06/09 10:40:20;;;;;;;4.67;4.13;;;;;;;25.88;68.13;99806.44;4978886;28;20212;-75
2023/06/09 10:43:15;;;;;;;4.97;4.57;;;;;;;25.78;67.36;99793.13;5005788;28;20322;-75
2023/06/09 10:45:57;;;;;;;5.07;4.50;;;;;;;25.82;67.68;99786.59;4982934;28;20545;-75
2023/06/09 10:48:50;;;;;;;6.83;4.73;;;;;;;25.83;68.09;99782.13;5003078;28;20633;-75
2023/06/09 10:51:24;;;;;;;5.67;4.23;;;;;;;25.95;67.98;99790.88;4999298;28;20207;-74
2023/06/09 10:54:14;;;;;;;6.87;4.80;;;;;;;25.72;67.00;99796.25;4977887;28;20198;-75
2023/06/09 10:56:42;;;;;;;6.63;4.70;;;;;;;25.82;67.77;99785.75;4995831;28;20721;-74
2023/06/09 10:59:25;;;;;;;4.33;3.67;;;;;;;25.96;66.72;99787.25;5003982;28;20235;-75
2023/06/09 11:02:02;;;;;;;5.53;4.40;;;;;;;25.83;67.39;99782.97;4992869;28;20223;-76
2023/06/09 11:04:48;;;;;;;5.00;4.47;;;;;;;25.78;67.60;99792.25;4996704;28;20668;-74
2023/06/09 11:07:14;;;;;;;5.03;4.53;;;;;;;25.78;66.66;99779.88;4995445;28;22028;-75
2023/06/09 11:10:01;;;;;;;9.23;4.70;;;;;;;25.85;67.18;99781.03;5002329;28;20196;-74
2023/06/09 11:12:49;;;;;;;5.40;4.60;;;;;;;26.21;66.21;99774.69;5000756;28;20258;-75
2023/06/09 11:15:15;;;;;;;5.83;5.20;;;;;;;26.23;66.59;99786.84;4999737;28;20227;-75
2023/06/09 11:17:45;;;;;;;5.50;4.60;;;;;;;26.16;65.66;99783.84;4999276;28;20262;-75
2023/06/09 11:20:14;;;;;;;5.00;4.47;;;;;;;26.28;66.31;99770.53;5004412;28;20192;-75
2023/06/09 11:22:50;;;;;;;5.97;4.50;;;;;;;26.24;66.62;99777.09;4986217;28;20707;-75
2023/06/09 11:25:15;;;;;;;4.77;4.37;;;;;;;26.46;65.79;99765.50;5003470;28;20226;-74
2023/06/09 11:27:45;;;;;;;6.27;4.47;;;;;;;26.17;65.91;99772.28;5000099;28;20689;-74
2023/06/09 11:30:11;;;;;;;5.13;4.73;;;;;;;26.25;66.13;99765.47;4996040;28;20192;-75